createdAt,value
2023-03-06T00:00:05.443Z,23.60
2023-03-06T00:01:17.108Z,16.83
2023-03-06T00:02:21.016Z,12.35
2023-03-06T00:03:26.568Z,13.55
2023-03-06T00:04:30.461Z,16.88
2023-03-06T00:05:34.083Z,14.15
2023-03-06T00:06:37.989Z,16.65
2023-03-06T00:07:41.886Z,21.45
2023-03-06T00:08:45.385Z,17.38
2023-03-06T00:09:48.937Z,21.40
2023-03-06T00:10:52.558Z,19.30
2023-03-06T00:11:56.355Z,17.88
2023-03-06T00:13:01.634Z,20.55
2023-03-06T00:14:05.478Z,14.00
2023-03-06T00:15:09.490Z,17.08
2023-03-06T00:16:13.540Z,14.23
2023-03-06T00:17:18.427Z,14.82
2023-03-06T00:18:22.019Z,25.85
2023-03-06T00:19:25.531Z,13.40
2023-03-06T00:20:29.457Z,12.07
2023-03-06T00:21:32.961Z,23.08
2023-03-06T00:22:36.939Z,13.95
2023-03-06T00:23:41.776Z,13.63
2023-03-06T00:24:45.946Z,13.05
2023-03-06T00:25:49.915Z,15.85
2023-03-06T00:26:53.973Z,8.15
2023-03-06T00:27:58.061Z,13.82
2023-03-06T00:29:01.847Z,19.65
2023-03-06T00:30:06.036Z,17.90
2023-03-06T00:31:10.896Z,18.23
2023-03-06T00:32:14.357Z,15.00
2023-03-06T00:33:18.329Z,19.65
2023-03-06T00:34:22.103Z,13.63
2023-03-06T00:35:25.621Z,13.77
2023-03-06T00:36:29.148Z,19.85
2023-03-06T00:37:33.082Z,14.68
2023-03-06T00:38:38.155Z,22.45
2023-03-06T00:39:42.108Z,18.25
2023-03-06T00:40:45.822Z,20.48
2023-03-06T00:41:49.764Z,19.90
2023-03-06T00:42:53.721Z,19.75
2023-03-06T00:43:57.657Z,18.92
2023-03-06T00:45:01.566Z,14.75
2023-03-06T00:46:06.500Z,18.98
2023-03-06T00:47:10.646Z,20.83
2023-03-06T00:48:14.362Z,18.55
2023-03-06T00:49:18.172Z,18.20
2023-03-06T00:50:21.699Z,17.15
2023-03-06T00:51:25.648Z,16.73
2023-03-06T00:52:29.207Z,9.98
2023-03-06T00:53:32.708Z,16.58
2023-03-06T00:54:36.158Z,15.07
2023-03-06T00:55:40.241Z,16.55
2023-03-06T00:56:44.157Z,15.85
2023-03-06T00:57:48.192Z,18.70
2023-03-06T00:58:51.716Z,13.80
2023-03-06T00:59:55.611Z,18.95
2023-03-06T01:00:59.362Z,13.57
2023-03-06T01:02:03.103Z,16.83
2023-03-06T01:03:06.568Z,13.73
2023-03-06T01:04:10.101Z,17.80
2023-03-06T01:05:14.795Z,16.50
2023-03-06T01:06:18.809Z,15.43
2023-03-06T01:07:22.781Z,15.82
2023-03-06T01:08:27.400Z,16.70
2023-03-06T01:09:33.400Z,15.68
2023-03-06T01:10:41.030Z,15.80
2023-03-06T01:11:45.735Z,14.32
2023-03-06T01:12:49.537Z,13.65
2023-03-06T01:13:54.973Z,9.77
2023-03-06T01:14:58.782Z,14.85
2023-03-06T01:16:14.913Z,17.45
2023-03-06T01:17:18.914Z,9.68
2023-03-06T01:18:22.492Z,15.85
2023-03-06T01:19:26.387Z,14.45
2023-03-06T01:20:30.428Z,13.77
2023-03-06T01:21:33.952Z,12.35
2023-03-06T01:22:37.962Z,10.38
2023-03-06T01:23:41.657Z,15.68
2023-03-06T01:24:45.181Z,11.43
2023-03-06T01:25:48.606Z,12.73
2023-03-06T01:26:52.704Z,15.32
2023-03-06T01:27:57.498Z,11.82
2023-03-06T01:29:01.689Z,12.93
2023-03-06T01:30:05.617Z,19.33
2023-03-06T01:31:09.399Z,11.75
2023-03-06T01:32:13.371Z,13.75
2023-03-06T01:33:18.697Z,18.35
2023-03-06T01:34:22.694Z,14.65
2023-03-06T01:35:26.740Z,17.92
2023-03-06T01:36:30.329Z,15.52
2023-03-06T01:37:35.731Z,16.27
2023-03-06T01:38:40.091Z,18.42
2023-03-06T01:39:44.013Z,10.52
2023-03-06T01:40:47.910Z,24.23
2023-03-06T01:41:51.821Z,20.13
2023-03-06T01:42:55.444Z,15.27
2023-03-06T01:43:59.163Z,23.98
2023-03-06T01:45:09.886Z,18.75
2023-03-06T01:46:34.328Z,14.18
2023-03-06T01:47:38.989Z,13.48
2023-03-06T01:48:42.490Z,10.35
2023-03-06T01:49:46.502Z,13.95
2023-03-06T01:50:51.060Z,13.35
2023-03-06T01:52:10.041Z,13.93
2023-03-06T01:53:13.579Z,23.83
2023-03-06T01:54:29.557Z,13.00
2023-03-06T01:55:34.597Z,18.33
2023-03-06T01:56:38.614Z,21.55
2023-03-06T01:57:45.202Z,18.65
2023-03-06T01:58:50.115Z,13.18
2023-03-06T02:00:06.861Z,12.77
2023-03-06T02:01:31.275Z,17.15
2023-03-06T02:02:35.246Z,26.73
2023-03-06T02:03:39.143Z,17.40
2023-03-06T02:04:44.981Z,22.40
2023-03-06T02:05:48.893Z,18.88
2023-03-06T02:06:52.439Z,21.40
2023-03-06T02:07:56.256Z,19.35
2023-03-06T02:09:00.316Z,19.50
2023-03-06T02:10:04.395Z,20.10
2023-03-06T02:11:10.909Z,15.63
2023-03-06T02:12:17.599Z,14.00
2023-03-06T02:13:21.132Z,17.48
2023-03-06T02:14:28.420Z,17.10
2023-03-06T02:15:31.972Z,16.55
2023-03-06T02:16:35.455Z,17.55
2023-03-06T02:17:39.308Z,17.20
2023-03-06T02:18:43.494Z,15.15
2023-03-06T02:20:08.325Z,16.50
2023-03-06T02:21:14.722Z,15.23
2023-03-06T02:22:18.765Z,22.67
2023-03-06T02:23:22.640Z,19.48
2023-03-06T02:24:38.156Z,26.80
2023-03-06T02:25:46.123Z,17.77
2023-03-06T02:26:50.011Z,25.13
2023-03-06T02:27:54.053Z,21.30
2023-03-06T02:28:59.770Z,28.30
2023-03-06T02:30:09.194Z,21.20
2023-03-06T02:31:32.994Z,16.98
2023-03-06T02:32:37.199Z,16.25
2023-03-06T02:33:41.113Z,26.50
2023-03-06T02:34:55.221Z,22.73
2023-03-06T02:36:06.345Z,21.90
2023-03-06T02:37:11.093Z,22.13
2023-03-06T02:38:17.472Z,16.20
2023-03-06T02:39:25.250Z,22.70
2023-03-06T02:40:29.071Z,26.73
2023-03-06T02:41:32.582Z,20.25
2023-03-06T02:42:36.230Z,20.63
2023-03-06T02:43:40.599Z,23.63
2023-03-06T02:44:44.085Z,20.77
2023-03-06T02:45:49.176Z,20.20
2023-03-06T02:46:52.789Z,17.42
2023-03-06T02:47:56.697Z,23.85
2023-03-06T02:49:00.416Z,23.15
2023-03-06T02:50:03.984Z,20.65
2023-03-06T02:51:07.576Z,21.83
2023-03-06T02:52:11.320Z,20.92
2023-03-06T02:53:17.393Z,26.83
2023-03-06T02:54:21.244Z,19.30
2023-03-06T02:55:26.399Z,16.80
2023-03-06T02:56:32.118Z,21.27
2023-03-06T02:57:36.126Z,20.85
2023-03-06T02:58:40.095Z,22.60
2023-03-06T02:59:43.643Z,21.88
2023-03-06T03:00:48.736Z,28.67
2023-03-06T03:01:52.572Z,21.58
2023-03-06T03:02:56.115Z,25.05
2023-03-06T03:03:59.652Z,23.63
2023-03-06T03:05:04.638Z,32.28
2023-03-06T03:06:08.946Z,22.67
2023-03-06T03:07:13.989Z,24.58
2023-03-06T03:08:19.011Z,22.25
2023-03-06T03:09:22.696Z,19.08
2023-03-06T03:10:26.404Z,16.30
2023-03-06T03:11:30.352Z,18.25
2023-03-06T03:12:34.683Z,12.50
2023-03-06T03:13:38.769Z,21.80
2023-03-06T03:14:44.014Z,15.38
2023-03-06T03:16:02.193Z,23.52
2023-03-06T03:17:05.948Z,16.70
2023-03-06T03:18:11.373Z,18.35
2023-03-06T03:19:15.290Z,14.35
2023-03-06T03:20:21.084Z,21.80
2023-03-06T03:21:24.657Z,21.33
2023-03-06T03:22:30.552Z,19.73
2023-03-06T03:23:34.043Z,16.50
2023-03-06T03:24:37.985Z,23.35
2023-03-06T03:25:41.685Z,17.90
2023-03-06T03:26:45.675Z,18.30
2023-03-06T03:27:52.631Z,26.13
2023-03-06T03:28:56.506Z,22.73
2023-03-06T03:30:00.360Z,16.67
2023-03-06T03:31:07.003Z,15.95
2023-03-06T03:32:11.242Z,15.07
2023-03-06T03:33:14.854Z,17.35
2023-03-06T03:34:19.566Z,24.27
2023-03-06T03:35:24.079Z,18.83
2023-03-06T03:36:28.101Z,27.48
2023-03-06T03:37:32.106Z,18.60
2023-03-06T03:38:36.414Z,20.98
2023-03-06T03:39:40.559Z,16.27
2023-03-06T03:40:44.590Z,17.40
2023-03-06T03:41:48.875Z,19.65
2023-03-06T03:42:52.802Z,18.35
2023-03-06T03:43:57.226Z,19.15
2023-03-06T03:45:01.174Z,17.70
2023-03-06T03:46:05.076Z,19.33
2023-03-06T03:47:09.280Z,16.83
2023-03-06T03:48:13.229Z,13.98
2023-03-06T03:49:17.634Z,23.00
2023-03-06T03:50:21.220Z,22.15
2023-03-06T03:51:24.885Z,16.23
2023-03-06T03:52:31.016Z,25.70
2023-03-06T03:53:35.079Z,19.92
2023-03-06T03:54:38.991Z,17.45
2023-03-06T03:55:42.507Z,16.33
2023-03-06T03:56:46.049Z,16.17
2023-03-06T03:57:58.057Z,19.88
2023-03-06T03:59:02.047Z,22.15
2023-03-06T04:00:16.508Z,19.67
2023-03-06T04:01:29.420Z,12.00
2023-03-06T04:02:33.555Z,22.67
2023-03-06T04:03:46.011Z,21.35
2023-03-06T04:04:52.129Z,20.33
2023-03-06T04:05:58.835Z,16.95
2023-03-06T04:07:05.277Z,20.38
2023-03-06T04:08:08.802Z,19.10
2023-03-06T04:09:16.691Z,16.95
2023-03-06T04:10:20.851Z,16.90
2023-03-06T04:11:26.851Z,20.67
2023-03-06T04:12:30.530Z,18.85
2023-03-06T04:13:34.068Z,18.10
2023-03-06T04:14:37.696Z,20.92
2023-03-06T04:15:42.008Z,17.65
2023-03-06T04:16:46.550Z,16.00
2023-03-06T04:17:50.178Z,14.60
2023-03-06T04:18:57.544Z,20.92
2023-03-06T04:20:02.027Z,18.60
2023-03-06T04:21:07.152Z,12.68
2023-03-06T04:22:10.713Z,17.02
2023-03-06T04:23:16.254Z,18.98
2023-03-06T04:24:20.729Z,14.85
2023-03-06T04:25:24.788Z,17.80
2023-03-06T04:26:28.842Z,18.83
2023-03-06T04:27:32.835Z,13.27
2023-03-06T04:28:37.065Z,13.85
2023-03-06T04:29:41.157Z,12.73
2023-03-06T04:30:45.026Z,14.10
2023-03-06T04:31:49.487Z,21.77
2023-03-06T04:32:53.174Z,16.58
2023-03-06T04:33:57.141Z,12.77
2023-03-06T04:35:01.195Z,14.38
2023-03-06T04:36:12.787Z,20.00
2023-03-06T04:37:24.268Z,20.15
2023-03-06T04:38:28.262Z,22.00
2023-03-06T04:39:32.243Z,15.93
2023-03-06T04:40:37.057Z,24.00
2023-03-06T04:41:42.007Z,17.73
2023-03-06T04:42:45.845Z,13.88
2023-03-06T04:43:49.298Z,19.20
2023-03-06T04:44:52.882Z,17.45
2023-03-06T04:45:56.703Z,14.38
2023-03-06T04:47:00.314Z,19.75
2023-03-06T04:48:03.886Z,13.95
2023-03-06T04:49:07.721Z,15.15
2023-03-06T04:50:12.166Z,19.25
2023-03-06T04:51:16.283Z,17.70
2023-03-06T04:52:19.918Z,19.02
2023-03-06T04:53:23.391Z,17.17
2023-03-06T04:54:27.415Z,19.98
2023-03-06T04:55:31.610Z,10.38
2023-03-06T04:56:35.554Z,15.45
2023-03-06T04:57:40.582Z,15.07
2023-03-06T04:58:44.772Z,12.85
2023-03-06T04:59:48.269Z,17.83
2023-03-06T05:00:51.899Z,17.75
2023-03-06T05:01:55.459Z,17.52
2023-03-06T05:03:02.977Z,27.55
2023-03-06T05:04:06.987Z,13.68
2023-03-06T05:05:11.737Z,17.15
2023-03-06T05:06:15.610Z,17.30
2023-03-06T05:07:19.285Z,18.95
2023-03-06T05:08:24.648Z,7.90
2023-03-06T05:09:28.222Z,15.55
2023-03-06T05:10:31.903Z,13.65
2023-03-06T05:11:35.335Z,15.40
2023-03-06T05:12:39.862Z,15.35
2023-03-06T05:13:43.538Z,12.70
2023-03-06T05:14:48.096Z,16.65
2023-03-06T05:15:52.032Z,19.95
2023-03-06T05:16:56.028Z,12.70
2023-03-06T05:17:59.694Z,21.30
2023-03-06T05:19:03.566Z,16.75
2023-03-06T05:20:08.560Z,11.45
2023-03-06T05:21:12.362Z,19.23
2023-03-06T05:22:15.838Z,12.68
2023-03-06T05:23:19.281Z,12.82
2023-03-06T05:24:22.743Z,16.52
2023-03-06T05:25:26.434Z,16.85
2023-03-06T05:26:30.243Z,14.60
2023-03-06T05:27:33.870Z,14.70
2023-03-06T05:28:37.487Z,16.58
2023-03-06T05:29:41.519Z,15.32
2023-03-06T05:30:45.057Z,17.10
2023-03-06T05:31:48.784Z,21.13
2023-03-06T05:32:52.967Z,16.73
2023-03-06T05:33:57.867Z,14.73
2023-03-06T05:35:01.762Z,17.17
2023-03-06T05:36:06.236Z,16.30
2023-03-06T05:37:09.937Z,16.95
2023-03-06T05:38:13.677Z,13.05
2023-03-06T05:39:17.588Z,20.20
2023-03-06T05:40:21.553Z,14.20
2023-03-06T05:41:25.084Z,14.90
2023-03-06T05:42:29.540Z,13.38
2023-03-06T05:43:33.496Z,18.05
2023-03-06T05:44:37.070Z,14.70
2023-03-06T05:45:41.053Z,18.30
2023-03-06T05:46:44.680Z,13.18
2023-03-06T05:47:48.655Z,16.58
2023-03-06T05:48:56.192Z,11.10
2023-03-06T05:49:59.858Z,18.75
2023-03-06T05:51:03.906Z,14.30
2023-03-06T05:52:08.120Z,16.75
2023-03-06T05:53:11.708Z,13.38
2023-03-06T05:54:15.608Z,12.07
2023-03-06T05:55:21.641Z,13.98
2023-03-06T05:56:25.276Z,17.10
2023-03-06T05:57:29.339Z,16.55
2023-03-06T05:58:33.187Z,12.95
2023-03-06T05:59:36.857Z,13.85
2023-03-06T06:00:40.272Z,14.88
2023-03-06T06:01:44.281Z,17.73
2023-03-06T06:02:48.088Z,17.65
2023-03-06T06:03:52.090Z,12.13
2023-03-06T06:04:55.818Z,15.75
2023-03-06T06:05:59.288Z,14.57
2023-03-06T06:07:02.803Z,19.80
2023-03-06T06:08:06.493Z,17.50
2023-03-06T06:09:12.836Z,16.35
2023-03-06T06:10:18.230Z,20.92
2023-03-06T06:11:22.199Z,11.60
2023-03-06T06:12:26.198Z,16.58
2023-03-06T06:13:30.104Z,16.55
2023-03-06T06:14:36.795Z,16.73
2023-03-06T06:15:40.353Z,12.13
2023-03-06T06:16:44.138Z,11.70
2023-03-06T06:17:48.105Z,13.07
2023-03-06T06:18:52.054Z,12.57
2023-03-06T06:19:55.738Z,13.43
2023-03-06T06:20:59.140Z,13.20
2023-03-06T06:22:04.643Z,14.23
2023-03-06T06:23:08.284Z,13.43
2023-03-06T06:24:12.141Z,12.93
2023-03-06T06:25:16.096Z,13.30
2023-03-06T06:26:20.091Z,14.93
2023-03-06T06:27:23.580Z,16.55
2023-03-06T06:28:27.358Z,21.90
2023-03-06T06:29:31.023Z,24.13
2023-03-06T06:30:34.983Z,15.20
2023-03-06T06:31:38.949Z,16.88
2023-03-06T06:32:42.823Z,17.38
2023-03-06T06:33:46.663Z,17.85
2023-03-06T06:34:50.160Z,21.08
2023-03-06T06:35:54.196Z,12.77
2023-03-06T06:36:57.793Z,20.75
2023-03-06T06:38:01.221Z,18.90
2023-03-06T06:39:05.301Z,15.85
2023-03-06T06:40:09.551Z,19.05
2023-03-06T06:41:36.019Z,19.08
2023-03-06T06:42:40.124Z,16.90
2023-03-06T06:43:44.344Z,12.10
2023-03-06T06:44:47.893Z,19.42
2023-03-06T06:45:52.188Z,16.52
2023-03-06T06:47:21.746Z,15.07
2023-03-06T06:48:20.601Z,11.95
2023-03-06T06:49:24.624Z,13.40
2023-03-06T06:50:28.240Z,16.52
2023-03-06T06:51:33.510Z,15.15
2023-03-06T06:52:37.367Z,12.10
2023-03-06T06:53:40.912Z,12.73
2023-03-06T06:54:44.387Z,19.50
2023-03-06T06:55:47.873Z,10.43
2023-03-06T06:56:51.601Z,14.75
2023-03-06T06:57:55.502Z,14.20
2023-03-06T06:59:15.781Z,11.23
2023-03-06T07:00:21.378Z,9.13
2023-03-06T07:01:24.872Z,12.35
2023-03-06T07:02:28.815Z,10.55
2023-03-06T07:03:32.818Z,9.10
2023-03-06T07:04:36.731Z,16.00
2023-03-06T07:05:40.337Z,16.63
2023-03-06T07:06:44.026Z,12.07
2023-03-06T07:07:47.547Z,14.63
2023-03-06T07:08:51.336Z,14.98
2023-03-06T07:09:55.807Z,17.20
2023-03-06T07:11:00.031Z,16.77
2023-03-06T07:12:03.600Z,14.85
2023-03-06T07:13:07.144Z,14.95
2023-03-06T07:14:10.979Z,13.90
2023-03-06T07:15:16.159Z,16.38
2023-03-06T07:16:19.988Z,11.38
2023-03-06T07:17:23.833Z,16.23
2023-03-06T07:18:28.126Z,11.52
2023-03-06T07:19:32.232Z,16.85
2023-03-06T07:20:36.928Z,12.48
2023-03-06T07:21:40.468Z,13.05
2023-03-06T07:22:50.713Z,16.83
2023-03-06T07:23:58.119Z,13.25
2023-03-06T07:25:02.096Z,13.02
2023-03-06T07:26:05.839Z,15.02
2023-03-06T07:27:09.278Z,13.05
2023-03-06T07:28:13.120Z,18.00
2023-03-06T07:29:17.287Z,12.07
2023-03-06T07:30:22.022Z,17.20
2023-03-06T07:31:27.072Z,25.20
2023-03-06T07:32:31.059Z,12.25
2023-03-06T07:33:35.430Z,18.02
2023-03-06T07:34:39.103Z,17.98
2023-03-06T07:35:43.244Z,17.50
2023-03-06T07:36:46.769Z,15.30
2023-03-06T07:37:50.376Z,18.58
2023-03-06T07:38:54.631Z,13.35
2023-03-06T07:39:58.228Z,13.13
2023-03-06T07:41:02.082Z,15.85
2023-03-06T07:42:06.286Z,12.43
2023-03-06T07:43:19.043Z,16.60
2023-03-06T07:44:39.218Z,16.17
2023-03-06T07:45:42.900Z,15.57
2023-03-06T07:46:46.407Z,15.57
2023-03-06T07:47:52.656Z,19.35
2023-03-06T07:48:56.264Z,16.65
2023-03-06T07:50:03.594Z,17.92
2023-03-06T07:51:08.661Z,14.35
2023-03-06T07:52:13.709Z,16.92
2023-03-06T07:53:17.678Z,14.38
2023-03-06T07:54:21.227Z,18.40
2023-03-06T07:55:25.120Z,17.38
2023-03-06T07:56:29.241Z,13.73
2023-03-06T07:57:32.828Z,18.25
2023-03-06T07:58:37.799Z,15.50
2023-03-06T07:59:41.846Z,10.63
2023-03-06T08:00:45.830Z,8.60
2023-03-06T08:01:49.870Z,12.98
2023-03-06T08:02:53.834Z,7.90
2023-03-06T08:03:57.936Z,7.78
2023-03-06T08:05:01.573Z,7.53
2023-03-06T08:06:16.898Z,9.98
2023-03-06T08:07:20.504Z,12.80
2023-03-06T08:08:24.379Z,10.55
2023-03-06T08:09:28.078Z,12.70
2023-03-06T08:10:31.595Z,9.15
2023-03-06T08:11:35.706Z,8.88
2023-03-06T08:12:39.915Z,11.98
2023-03-06T08:13:43.536Z,8.07
2023-03-06T08:14:47.423Z,7.13
2023-03-06T08:15:51.152Z,9.98
2023-03-06T08:16:57.702Z,5.65
2023-03-06T08:18:01.892Z,7.25
2023-03-06T08:19:06.132Z,7.68
2023-03-06T08:20:10.972Z,7.40
2023-03-06T08:21:16.137Z,11.10
2023-03-06T08:22:20.058Z,7.22
2023-03-06T08:23:23.933Z,6.40
2023-03-06T08:24:27.569Z,8.73
2023-03-06T08:25:31.135Z,5.65
2023-03-06T08:26:36.103Z,7.25
2023-03-06T08:27:40.042Z,4.53
2023-03-06T08:28:53.757Z,6.05
2023-03-06T08:29:57.371Z,3.85
2023-03-06T08:31:08.781Z,5.80
2023-03-06T08:32:12.955Z,6.38
2023-03-06T08:33:16.501Z,10.20
2023-03-06T08:34:21.762Z,5.32
2023-03-06T08:35:25.543Z,8.27
2023-03-06T08:36:29.514Z,7.60
2023-03-06T08:37:33.544Z,5.00
2023-03-06T08:38:37.624Z,5.32
2023-03-06T08:39:41.741Z,4.95
2023-03-06T08:40:45.334Z,9.18
2023-03-06T08:41:48.790Z,6.40
2023-03-06T08:42:52.263Z,3.42
2023-03-06T08:43:55.932Z,6.30
2023-03-06T08:44:59.334Z,7.82
2023-03-06T08:46:03.532Z,5.32
2023-03-06T08:47:06.879Z,5.10
2023-03-06T08:48:10.307Z,3.25
2023-03-06T08:49:14.096Z,3.55
2023-03-06T08:50:17.694Z,4.75
2023-03-06T08:51:21.873Z,6.95
2023-03-06T08:52:25.889Z,6.82
2023-03-06T08:53:42.001Z,6.90
2023-03-06T08:54:47.580Z,8.60
2023-03-06T08:55:51.515Z,7.30
2023-03-06T08:56:55.566Z,6.80
2023-03-06T08:57:59.562Z,4.60
2023-03-06T08:59:04.368Z,8.13
2023-03-06T09:00:10.061Z,8.82
2023-03-06T09:01:19.005Z,6.10
2023-03-06T09:02:22.520Z,7.93
2023-03-06T09:03:26.637Z,7.13
2023-03-06T09:04:31.713Z,11.02
2023-03-06T09:05:35.220Z,5.75
2023-03-06T09:06:41.152Z,6.78
2023-03-06T09:07:44.799Z,9.90
2023-03-06T09:08:48.673Z,7.95
2023-03-06T09:09:52.977Z,7.47
2023-03-06T09:10:56.937Z,8.40
2023-03-06T09:12:00.846Z,4.63
2023-03-06T09:13:04.487Z,8.80
2023-03-06T09:14:08.017Z,6.68
2023-03-06T09:15:11.976Z,6.07
2023-03-06T09:16:15.903Z,9.15
2023-03-06T09:17:19.493Z,6.45
2023-03-06T09:18:23.106Z,8.40
2023-03-06T09:19:27.284Z,9.05
2023-03-06T09:20:30.946Z,6.88
2023-03-06T09:21:34.578Z,7.07
2023-03-06T09:22:38.217Z,5.05
2023-03-06T09:23:41.666Z,9.02
2023-03-06T09:24:45.512Z,7.32
2023-03-06T09:25:56.005Z,8.88
2023-03-06T09:26:59.964Z,12.27
2023-03-06T09:28:11.215Z,7.60
2023-03-06T09:29:16.876Z,7.20
2023-03-06T09:30:20.443Z,5.82
2023-03-06T09:31:24.382Z,12.23
2023-03-06T09:32:28.055Z,10.95
2023-03-06T09:33:32.545Z,8.13
2023-03-06T09:34:37.084Z,8.25
2023-03-06T09:35:59.132Z,7.60
2023-03-06T09:37:05.774Z,7.55
2023-03-06T09:38:09.320Z,7.25
2023-03-06T09:39:12.984Z,6.95
2023-03-06T09:40:24.419Z,9.80
2023-03-06T09:41:46.195Z,6.75
2023-03-06T09:42:50.228Z,4.18
2023-03-06T09:43:56.520Z,6.53
2023-03-06T09:45:03.184Z,4.75
2023-03-06T09:46:20.958Z,8.05
2023-03-06T09:47:48.411Z,6.53
2023-03-06T09:49:17.617Z,7.10
2023-03-06T09:51:05.636Z,13.95
2023-03-06T09:52:21.302Z,3.63
2023-03-06T09:53:28.002Z,4.10
2023-03-06T09:54:40.732Z,6.82
2023-03-06T09:55:45.130Z,5.03
2023-03-06T09:56:49.866Z,5.15
2023-03-06T09:58:02.227Z,7.03
2023-03-06T09:59:15.132Z,5.72
2023-03-06T10:00:24.519Z,4.50
2023-03-06T10:01:33.006Z,2.63
2023-03-06T10:02:47.580Z,4.57
2023-03-06T10:03:59.057Z,2.78
2023-03-06T10:05:05.121Z,7.10
2023-03-06T10:06:16.807Z,9.55
2023-03-06T10:07:26.865Z,7.90
2023-03-06T10:09:02.507Z,4.95
2023-03-06T10:10:07.332Z,10.82
2023-03-06T10:11:11.618Z,8.77
2023-03-06T10:12:24.964Z,7.38
2023-03-06T10:13:46.257Z,7.78
2023-03-06T10:14:56.932Z,7.40
2023-03-06T10:16:22.362Z,5.45
2023-03-06T10:17:26.850Z,7.10
2023-03-06T10:18:30.293Z,4.07
2023-03-06T10:19:38.329Z,4.97
2023-03-06T10:21:04.742Z,5.53
2023-03-06T10:26:23.392Z,8.50
2023-03-06T10:28:13.716Z,6.13
2023-03-06T10:29:27.074Z,3.92
2023-03-06T10:30:57.214Z,3.45
2023-03-06T10:32:24.250Z,3.50
2023-03-06T10:33:56.435Z,4.97
2023-03-06T10:35:02.234Z,9.18
2023-03-06T10:36:08.615Z,7.90
2023-03-06T10:37:20.637Z,3.22
2023-03-06T10:38:32.602Z,5.75
2023-03-06T10:39:36.717Z,3.22
2023-03-06T10:41:01.007Z,3.47
2023-03-06T10:42:06.134Z,2.38
2023-03-06T10:43:13.726Z,5.53
2023-03-06T10:44:19.276Z,4.72
2023-03-06T10:45:24.386Z,4.13
2023-03-06T10:46:32.689Z,2.50
2023-03-06T10:47:37.865Z,2.97
2023-03-06T10:48:42.506Z,2.88
2023-03-06T10:49:46.616Z,3.65
2023-03-06T10:50:50.749Z,2.92
2023-03-06T10:52:04.806Z,4.47
2023-03-06T10:53:16.995Z,2.63
2023-03-06T10:54:23.807Z,2.58
2023-03-06T10:55:31.825Z,5.60
2023-03-06T10:56:37.528Z,3.60
2023-03-06T10:57:41.625Z,1.30
2023-03-06T10:58:45.569Z,4.22
2023-03-06T10:59:54.092Z,2.97
2023-03-06T11:01:10.506Z,8.25
2023-03-06T11:02:41.954Z,3.25
2023-03-06T11:03:46.124Z,2.33
2023-03-06T11:04:53.497Z,3.78
2023-03-06T11:06:04.556Z,4.93
2023-03-06T11:07:15.571Z,5.38
2023-03-06T11:08:23.703Z,4.85
2023-03-06T11:09:27.290Z,7.03
2023-03-06T11:10:32.440Z,3.60
2023-03-06T11:11:38.118Z,4.20
2023-03-06T11:12:44.721Z,2.65
2023-03-06T11:13:56.816Z,4.68
2023-03-06T11:15:15.327Z,5.25
2023-03-06T11:16:25.780Z,2.35
2023-03-06T11:17:31.472Z,3.75
2023-03-06T11:18:43.729Z,3.35
2023-03-06T11:19:47.345Z,4.80
2023-03-06T11:20:53.306Z,4.35
2023-03-06T11:22:20.477Z,2.28
2023-03-06T11:23:48.387Z,2.78
2023-03-06T11:24:52.129Z,5.07
2023-03-06T11:26:24.107Z,3.60
2023-03-06T11:27:35.054Z,2.72
2023-03-06T11:28:41.329Z,3.78
2023-03-06T11:29:51.656Z,3.58
2023-03-06T11:32:22.173Z,2.88
2023-03-06T11:33:48.724Z,4.45
2023-03-06T11:35:19.128Z,4.22
2023-03-06T11:37:53.731Z,5.03
2023-03-06T11:38:57.737Z,4.38
2023-03-06T11:40:16.739Z,3.25
2023-03-06T11:41:34.968Z,3.28
2023-03-06T11:42:57.345Z,6.32
2023-03-06T11:44:21.588Z,5.63
2023-03-06T11:45:48.778Z,5.72
2023-03-06T11:47:04.007Z,2.75
2023-03-06T11:48:17.111Z,3.42
2023-03-06T11:49:44.132Z,4.32
2023-03-06T11:50:53.108Z,7.22
2023-03-06T11:51:57.634Z,5.38
2023-03-06T11:53:02.867Z,5.18
2023-03-06T11:54:06.907Z,3.95
2023-03-06T11:55:15.073Z,3.35
2023-03-06T11:56:23.644Z,6.57
2023-03-06T11:57:36.308Z,5.35
2023-03-06T11:59:08.668Z,4.60
2023-03-06T12:00:39.135Z,4.15
2023-03-06T12:01:57.088Z,5.07
2023-03-06T12:03:13.797Z,3.65
2023-03-06T12:04:39.916Z,7.32
2023-03-06T12:06:17.031Z,6.70
2023-03-06T12:07:35.733Z,7.50
2023-03-06T12:08:54.875Z,5.60
2023-03-06T12:10:19.189Z,5.70
2023-03-06T12:11:53.153Z,7.32
2023-03-06T12:13:17.700Z,4.93
2023-03-06T12:14:21.118Z,7.18
2023-03-06T12:15:43.463Z,7.05
2023-03-06T12:16:54.835Z,6.45
2023-03-06T12:18:20.206Z,6.25
2023-03-06T12:19:47.848Z,11.77
2023-03-06T12:21:15.580Z,5.15
2023-03-06T12:22:33.955Z,7.85
2023-03-06T12:24:01.923Z,10.00
2023-03-06T12:25:32.203Z,5.22
2023-03-06T12:27:13.189Z,8.07
2023-03-06T12:28:30.525Z,6.80
2023-03-06T12:30:01.520Z,8.48
2023-03-06T12:31:43.698Z,9.85
2023-03-06T12:33:02.104Z,6.22
2023-03-06T12:34:29.827Z,6.82
2023-03-06T12:35:50.101Z,8.70
2023-03-06T12:38:34.723Z,4.10
2023-03-06T12:39:48.938Z,5.25
2023-03-06T12:41:04.487Z,5.15
2023-03-06T12:42:23.125Z,6.78
2023-03-06T12:44:13.337Z,7.63
2023-03-06T12:45:22.875Z,7.47
2023-03-06T12:46:27.943Z,8.88
2023-03-06T12:47:44.416Z,7.32
2023-03-06T12:49:20.163Z,12.13
2023-03-06T12:50:29.505Z,11.95
2023-03-06T12:51:33.264Z,7.38
2023-03-06T12:52:36.737Z,5.47
2023-03-06T12:53:43.248Z,6.47
2023-03-06T12:54:46.789Z,8.55
2023-03-06T12:55:50.796Z,6.13
2023-03-06T12:56:54.663Z,11.27
2023-03-06T12:57:58.658Z,10.73
2023-03-06T12:59:03.120Z,11.80
2023-03-06T13:00:07.713Z,7.35
2023-03-06T13:01:32.539Z,8.80
2023-03-06T13:03:00.799Z,7.32
2023-03-06T13:04:23.709Z,4.53
2023-03-06T13:05:43.958Z,4.53
2023-03-06T13:07:04.961Z,10.43
2023-03-06T13:08:26.111Z,7.32
2023-03-06T13:09:48.979Z,4.47
2023-03-06T13:11:08.243Z,5.40
2023-03-06T13:12:25.769Z,3.10
2023-03-06T13:13:30.916Z,5.38
2023-03-06T13:14:35.740Z,5.72
2023-03-06T13:15:43.849Z,4.82
2023-03-06T13:16:47.888Z,6.38
2023-03-06T13:17:51.513Z,5.70
2023-03-06T13:19:14.440Z,3.83
2023-03-06T13:20:41.726Z,5.82
2023-03-06T13:21:54.953Z,3.42
2023-03-06T13:22:59.421Z,1.50
2023-03-06T13:24:06.169Z,4.75
2023-03-06T13:25:18.516Z,1.92
2023-03-06T13:26:27.957Z,2.97
2023-03-06T13:27:55.748Z,2.63
2023-03-06T13:28:59.862Z,2.03
2023-03-06T13:30:22.016Z,4.03
2023-03-06T13:31:34.212Z,2.72
2023-03-06T13:32:37.870Z,3.10
2023-03-06T13:33:41.653Z,1.63
2023-03-06T13:34:50.937Z,2.58
2023-03-06T13:35:59.087Z,2.17
2023-03-06T13:37:22.197Z,1.98
2023-03-06T13:38:33.792Z,3.58
2023-03-06T13:40:01.511Z,3.45
2023-03-06T13:41:23.588Z,2.50
2023-03-06T13:42:28.153Z,3.00
2023-03-06T13:43:32.031Z,2.33
2023-03-06T13:44:41.954Z,1.90
2023-03-06T13:45:45.813Z,1.13
2023-03-06T13:47:21.260Z,2.35
2023-03-06T13:48:44.762Z,1.77
2023-03-06T13:49:50.302Z,2.30
2023-03-06T13:50:56.517Z,2.92
2023-03-06T13:52:30.626Z,1.08
2023-03-06T13:53:45.458Z,0.93
2023-03-06T13:55:00.804Z,2.53
2023-03-06T13:56:30.025Z,3.20
2023-03-06T13:57:54.723Z,3.05
2023-03-06T13:59:16.884Z,1.75
2023-03-06T14:00:36.282Z,1.88
2023-03-06T14:01:58.557Z,2.42
2023-03-06T14:03:35.108Z,1.92
2023-03-06T14:04:59.036Z,2.85
2023-03-06T14:06:03.210Z,3.97
2023-03-06T14:07:09.153Z,2.53
2023-03-06T14:08:17.795Z,1.67
2023-03-06T14:09:21.251Z,4.13
2023-03-06T14:10:25.717Z,1.60
2023-03-06T14:11:29.809Z,3.80
2023-03-06T14:12:38.560Z,3.17
2023-03-06T14:13:49.590Z,1.75
2023-03-06T14:15:00.104Z,2.75
2023-03-06T14:17:07.272Z,2.25
2023-03-06T14:18:40.805Z,2.10
2023-03-06T14:19:44.705Z,1.25
2023-03-06T14:21:08.168Z,1.48
2023-03-06T14:22:17.821Z,1.23
2023-03-06T14:23:30.476Z,1.67
2023-03-06T14:24:39.528Z,1.38
2023-03-06T14:25:43.504Z,0.90
2023-03-06T14:26:56.065Z,1.05
2023-03-06T14:28:12.337Z,1.27
2023-03-06T14:29:25.537Z,2.10
2023-03-06T14:30:29.135Z,1.00
2023-03-06T14:31:34.828Z,1.90
2023-03-06T14:32:39.542Z,1.88
2023-03-06T14:34:02.092Z,1.42
2023-03-06T14:35:06.424Z,1.75
2023-03-06T14:36:14.236Z,1.13
2023-03-06T14:37:21.518Z,2.78
2023-03-06T14:38:24.908Z,3.35
2023-03-06T14:39:47.700Z,1.48
2023-03-06T14:40:53.305Z,3.63
2023-03-06T14:42:27.153Z,1.00
2023-03-06T14:43:32.317Z,2.47
2023-03-06T14:44:35.761Z,2.78
2023-03-06T14:45:49.380Z,0.77
2023-03-06T14:46:57.272Z,2.20
2023-03-06T14:48:01.494Z,5.40
2023-03-06T14:49:07.975Z,3.08
2023-03-06T14:50:30.885Z,3.85
2023-03-06T14:51:36.141Z,5.15
2023-03-06T14:52:39.970Z,9.18
2023-03-06T14:53:45.549Z,7.93
2023-03-06T14:54:49.189Z,5.20
2023-03-06T14:55:59.496Z,4.60